Time;durP1;ratioP1;P1;durP2;ratioP2;P2;SDS_P1;SDS_P2;PMS_P1;PMS_P2;Temp;Humidity;BMP_temperature;BMP_pressure;BME280_temperature;BME280_humidity;BME280_pressure;Samples;Min_cycle;Max_cycle;Signal;HPM_P1;HPM_P2
2022/11/12 00:00:02;;;;;;;18.35;11.32;;;;;;;;;;5052076;28;20464;-65
2022/11/12 00:02:28;;;;;;;18.60;11.10;;;;;;;;;;5051996;28;20044;-65
2022/11/12 00:04:54;;;;;;;14.75;11.27;;;;;;;;;;5051645;28;20036;-65
2022/11/12 00:07:20;;;;;;;18.80;11.02;;;;;;;;;;5051640;28;20033;-65
2022/11/12 00:09:46;;;;;;;20.35;11.23;;;;;;;;;;5051663;28;20033;-65
2022/11/12 00:12:12;;;;;;;16.45;11.68;;;;;;;;;;5051112;28;20124;-65
2022/11/12 00:14:38;;;;;;;20.13;12.00;;;;;;;;;;5051859;28;20072;-65
2022/11/12 00:17:04;;;;;;;19.45;10.80;;;;;;;;;;5051833;28;20539;-65
2022/11/12 00:19:30;;;;;;;18.17;10.65;;;;;;;;;;5051096;28;20128;-65
2022/11/12 00:21:56;;;;;;;16.05;11.40;;;;;;;;;;5051220;28;20045;-65
2022/11/12 00:24:22;;;;;;;20.50;11.63;;;;;;;;;;5051720;28;20041;-65
2022/11/12 00:26:48;;;;;;;18.40;11.60;;;;;;;;;;5050899;28;20116;-65
2022/11/12 00:29:14;;;;;;;17.38;11.25;;;;;;;;;;5051394;28;20041;-65
2022/11/12 00:31:40;;;;;;;19.25;11.60;;;;;;;;;;5051223;28;20044;-65
2022/11/12 00:34:06;;;;;;;18.17;10.15;;;;;;;;;;5051340;28;20045;-65
2022/11/12 00:36:32;;;;;;;14.85;9.93;;;;;;;;;;5051530;28;20409;-65
2022/11/12 00:38:58;;;;;;;16.67;10.18;;;;;;;;;;5051678;28;20491;-65
2022/11/12 00:41:24;;;;;;;17.85;11.20;;;;;;;;;;5050973;28;20120;-65
2022/11/12 00:43:51;;;;;;;18.08;11.07;;;;;;;;;;5051583;28;20037;-65
2022/11/12 00:46:17;;;;;;;18.60;11.50;;;;;;;;;;5050977;28;20052;-65
2022/11/12 00:48:43;;;;;;;16.83;11.20;;;;;;;;;;5051187;28;20094;-65
2022/11/12 00:51:09;;;;;;;20.42;11.32;;;;;;;;;;5050974;28;20045;-65
2022/11/12 00:53:35;;;;;;;18.98;11.38;;;;;;;;;;5051293;28;20048;-65
2022/11/12 00:56:05;;;;;;;21.67;12.52;;;;;;;;;;5053966;28;20037;-65
2022/11/12 00:58:32;;;;;;;20.45;12.48;;;;;;;;;;5055256;28;20073;-65
2022/11/12 01:00:58;;;;;;;16.80;12.20;;;;;;;;;;5055174;28;20044;-65
2022/11/12 01:03:26;;;;;;;19.35;12.38;;;;;;;;;;5055195;28;20040;-65
2022/11/12 01:05:53;;;;;;;21.75;12.20;;;;;;;;;;5055343;28;20041;-65
2022/11/12 01:08:19;;;;;;;21.92;11.75;;;;;;;;;;5055264;28;20044;-65
2022/11/12 01:10:45;;;;;;;18.77;11.48;;;;;;;;;;5054787;28;20037;-65
2022/11/12 01:13:11;;;;;;;21.33;11.98;;;;;;;;;;5054852;28;20072;-65
2022/11/12 01:15:41;;;;;;;17.85;11.50;;;;;;;;;;5055172;28;20053;-65
2022/11/12 01:18:07;;;;;;;14.98;10.90;;;;;;;;;;5054798;28;20065;-65
2022/11/12 01:20:33;;;;;;;16.35;11.38;;;;;;;;;;5055030;28;20472;-65
2022/11/12 01:22:59;;;;;;;18.25;11.23;;;;;;;;;;5054931;28;20048;-65
2022/11/12 01:25:25;;;;;;;15.60;10.45;;;;;;;;;;5054602;28;20047;-65
2022/11/12 01:27:52;;;;;;;16.38;11.18;;;;;;;;;;5054989;28;20044;-65
2022/11/12 01:30:18;;;;;;;20.58;11.55;;;;;;;;;;5054928;28;20045;-65
2022/11/12 01:32:44;;;;;;;19.35;11.68;;;;;;;;;;5054439;28;20411;-65
2022/11/12 01:35:10;;;;;;;17.92;11.02;;;;;;;;;;5054927;28;20040;-65
2022/11/12 01:37:36;;;;;;;19.20;12.38;;;;;;;;;;5054892;28;20044;-65
2022/11/12 01:40:02;;;;;;;18.45;10.77;;;;;;;;;;5054061;28;20037;-65
2022/11/12 01:42:32;;;;;;;25.13;11.68;;;;;;;;;;5054739;28;20403;-65
2022/11/12 01:44:58;;;;;;;15.82;10.93;;;;;;;;;;5054414;28;20041;-65
2022/11/12 01:47:28;;;;;;;17.23;10.80;;;;;;;;;;5053927;28;20041;-65
2022/11/12 01:49:54;;;;;;;18.38;10.52;;;;;;;;;;5054562;28;20044;-65
2022/11/12 01:52:33;;;;;;;16.00;9.80;;;;;;;;;;5054429;28;20033;-65
2022/11/12 01:55:06;;;;;;;15.88;10.60;;;;;;;;;;5054134;28;20171;-65
2022/11/12 01:57:55;;;;;;;17.63;10.95;;;;;;;;;;5054480;28;20032;-65
2022/11/12 02:00:21;;;;;;;15.88;10.15;;;;;;;;;;5043573;28;20049;-65
2022/11/12 02:02:52;;;;;;;13.90;9.50;;;;;;;;;;5053939;28;20048;-65
2022/11/12 02:05:18;;;;;;;13.55;9.25;;;;;;;;;;5054153;28;20119;-65
2022/11/12 02:07:45;;;;;;;19.45;10.45;;;;;;;;;;5053848;28;20124;-65
2022/11/12 02:10:13;;;;;;;14.80;9.40;;;;;;;;;;5053862;28;20048;-65
2022/11/12 02:15:25;;;;;;;12.82;8.77;;;;;;;;;;5053932;28;20041;-65
2022/11/12 02:17:52;;;;;;;14.70;10.25;;;;;;;;;;5053735;28;20041;-65
2022/11/12 02:20:18;;;;;;;14.60;9.63;;;;;;;;;;5053952;28;20033;-65
2022/11/12 02:22:44;;;;;;;13.57;9.38;;;;;;;;;;5053845;28;20040;-65
2022/11/12 02:25:12;;;;;;;12.57;8.27;;;;;;;;;;5053643;28;20056;-65
2022/11/12 02:27:38;;;;;;;14.75;9.38;;;;;;;;;;5054052;28;20037;-65
2022/11/12 02:30:05;;;;;;;12.48;9.07;;;;;;;;;;5053671;28;20127;-65
2022/11/12 02:32:31;;;;;;;14.27;8.85;;;;;;;;;;5053024;28;20095;-65
2022/11/12 02:34:57;;;;;;;12.50;9.93;;;;;;;;;;5053762;28;20091;-65
2022/11/12 02:37:23;;;;;;;14.88;9.73;;;;;;;;;;5053628;28;20037;-65
2022/11/12 02:39:49;;;;;;;12.93;9.60;;;;;;;;;;5053206;28;20072;-65
2022/11/12 02:42:15;;;;;;;14.88;10.13;;;;;;;;;;5053558;28;20041;-65
2022/11/12 02:44:41;;;;;;;13.95;9.73;;;;;;;;;;5053757;28;20040;-65
2022/11/12 02:47:07;;;;;;;15.73;10.15;;;;;;;;;;5053227;28;20037;-65
2022/11/12 02:49:33;;;;;;;13.85;9.85;;;;;;;;;;5053350;28;20403;-65
2022/11/12 02:51:59;;;;;;;17.88;10.40;;;;;;;;;;5053151;28;20128;-65
2022/11/12 02:54:25;;;;;;;15.60;10.65;;;;;;;;;;5052762;28;20041;-65
2022/11/12 02:56:51;;;;;;;14.57;9.50;;;;;;;;;;5053376;28;20041;-65
2022/11/12 02:59:17;;;;;;;15.55;9.93;;;;;;;;;;5052991;28;20041;-65
2022/11/12 03:01:43;;;;;;;13.77;9.68;;;;;;;;;;5052266;28;20047;-65
2022/11/12 03:04:09;;;;;;;13.73;9.45;;;;;;;;;;5053242;28;20041;-65
2022/11/12 03:06:35;;;;;;;15.27;10.55;;;;;;;;;;5052652;28;20090;-65
2022/11/12 03:09:01;;;;;;;12.93;9.80;;;;;;;;;;5052645;28;20079;-65
2022/11/12 03:11:27;;;;;;;14.32;9.80;;;;;;;;;;5053026;28;20060;-65
2022/11/12 03:13:53;;;;;;;13.68;10.10;;;;;;;;;;5052474;28;20075;-65
2022/11/12 03:16:19;;;;;;;13.55;10.23;;;;;;;;;;5052472;28;20072;-65
2022/11/12 03:18:45;;;;;;;17.65;10.27;;;;;;;;;;5052266;28;20424;-65
2022/11/12 03:21:12;;;;;;;13.23;9.23;;;;;;;;;;5052775;28;20052;-65
2022/11/12 03:23:38;;;;;;;14.40;9.95;;;;;;;;;;5052551;28;20482;-65
2022/11/12 03:26:04;;;;;;;13.48;9.80;;;;;;;;;;5052746;28;20052;-65
2022/11/12 03:28:30;;;;;;;14.35;9.20;;;;;;;;;;5052692;28;20044;-65
2022/11/12 03:30:57;;;;;;;13.48;8.88;;;;;;;;;;5052399;28;20037;-65
2022/11/12 03:33:23;;;;;;;11.30;8.30;;;;;;;;;;5052571;28;20140;-65
2022/11/12 03:35:49;;;;;;;13.07;9.25;;;;;;;;;;5052615;28;20124;-65
2022/11/12 03:38:15;;;;;;;12.75;8.25;;;;;;;;;;5052444;28;20037;-65
2022/11/12 03:40:41;;;;;;;13.10;8.48;;;;;;;;;;5052136;28;20059;-65
2022/11/12 03:43:08;;;;;;;12.88;8.50;;;;;;;;;;5052431;28;20041;-65
2022/11/12 03:45:34;;;;;;;13.95;9.27;;;;;;;;;;5052361;28;20069;-65
2022/11/12 03:48:00;;;;;;;13.35;8.43;;;;;;;;;;5052036;28;20041;-65
2022/11/12 03:50:27;;;;;;;10.35;7.80;;;;;;;;;;5052027;28;20040;-65
2022/11/12 03:52:55;;;;;;;11.60;7.70;;;;;;;;;;5052282;28;20045;-65
2022/11/12 03:55:21;;;;;;;12.80;8.98;;;;;;;;;;5051745;28;20139;-65
2022/11/12 03:57:49;;;;;;;13.20;8.63;;;;;;;;;;5052299;28;20524;-65
2022/11/12 04:00:15;;;;;;;11.43;8.30;;;;;;;;;;5051964;28;20382;-65
2022/11/12 04:02:41;;;;;;;12.68;7.97;;;;;;;;;;5051613;28;20538;-65
2022/11/12 04:10:43;;;;;;;11.32;7.07;;;;;;;;;;5051941;28;20053;-65
2022/11/12 04:13:27;;;;;;;9.48;7.50;;;;;;;;;;5051797;28;20106;-65
2022/11/12 04:21:50;;;;;;;9.60;6.40;;;;;;;;;;5051694;28;20068;-65
2022/11/12 04:27:03;;;;;;;11.90;7.55;;;;;;;;;;5051646;28;20131;-65
2022/11/12 04:32:14;;;;;;;12.80;7.28;;;;;;;;;;5051209;28;20114;-65
2022/11/12 04:34:40;;;;;;;11.88;7.47;;;;;;;;;;5051641;28;20476;-65
2022/11/12 04:37:06;;;;;;;8.70;7.18;;;;;;;;;;5051208;28;20049;-65
2022/11/12 04:39:32;;;;;;;14.93;7.95;;;;;;;;;;5051096;28;20395;-65
2022/11/12 04:44:59;;;;;;;14.50;8.65;;;;;;;;;;5051634;28;20041;-65
2022/11/12 04:47:36;;;;;;;11.60;7.93;;;;;;;;;;5051461;28;20178;-65
2022/11/12 04:50:05;;;;;;;9.15;7.03;;;;;;;;;;5051534;28;20372;-65
2022/11/12 04:52:31;;;;;;;9.40;6.90;;;;;;;;;;5050860;28;20166;-65
2022/11/12 04:54:57;;;;;;;10.50;6.90;;;;;;;;;;5051375;28;20351;-65
2022/11/12 04:57:23;;;;;;;12.07;8.23;;;;;;;;;;5051553;28;20041;-65
2022/11/12 04:59:49;;;;;;;11.00;7.57;;;;;;;;;;5050792;28;20395;-65
2022/11/12 05:02:16;;;;;;;11.70;7.18;;;;;;;;;;5051313;28;20041;-65
2022/11/12 05:04:43;;;;;;;26.75;7.88;;;;;;;;;;5051284;28;20522;-65
2022/11/12 05:07:09;;;;;;;21.63;8.25;;;;;;;;;;5050931;28;20371;-65
2022/11/12 05:09:35;;;;;;;10.93;7.85;;;;;;;;;;5051187;28;20037;-65
2022/11/12 05:12:01;;;;;;;14.85;8.30;;;;;;;;;;5051108;28;20044;-65
2022/11/12 05:14:27;;;;;;;12.60;8.05;;;;;;;;;;5051403;28;20052;-65
2022/11/12 05:16:53;;;;;;;11.82;8.55;;;;;;;;;;5050882;28;20498;-65
2022/11/12 05:19:20;;;;;;;14.13;8.60;;;;;;;;;;5050927;28;20045;-65
2022/11/12 05:22:04;;;;;;;12.90;8.48;;;;;;;;;;5051066;28;20041;-65
2022/11/12 05:24:39;;;;;;;12.27;7.97;;;;;;;;;;5051101;28;20033;-65
2022/11/12 05:27:13;;;;;;;13.30;8.55;;;;;;;;;;5051191;28;20037;-65
2022/11/12 05:29:39;;;;;;;12.05;8.73;;;;;;;;;;5050698;28;20052;-65
2022/11/12 05:32:07;;;;;;;14.57;8.68;;;;;;;;;;5051047;28;20041;-65
2022/11/12 05:34:33;;;;;;;14.57;8.38;;;;;;;;;;5051053;28;20040;-65
2022/11/12 05:36:59;;;;;;;12.35;7.93;;;;;;;;;;5050663;28;20044;-65
2022/11/12 05:39:25;;;;;;;10.60;7.63;;;;;;;;;;5050847;28;20545;-65
2022/11/12 05:41:52;;;;;;;13.65;7.68;;;;;;;;;;5053260;28;20041;-65
2022/11/12 05:44:18;;;;;;;10.93;7.20;;;;;;;;;;5054273;28;20033;-65
2022/11/12 05:46:44;;;;;;;9.70;7.25;;;;;;;;;;5054331;28;20407;-65
2022/11/12 05:49:10;;;;;;;16.67;7.75;;;;;;;;;;5054739;28;20552;-65
2022/11/12 05:51:36;;;;;;;13.90;7.05;;;;;;;;;;5054121;28;20471;-65
2022/11/12 05:54:02;;;;;;;12.98;7.38;;;;;;;;;;5054579;28;20100;-65
2022/11/12 05:56:28;;;;;;;24.10;7.85;;;;;;;;;;5054196;28;20041;-65
2022/11/12 05:58:55;;;;;;;17.38;7.93;;;;;;;;;;5054417;28;20033;-65
2022/11/12 06:01:21;;;;;;;22.73;7.90;;;;;;;;;;5053822;28;20072;-65
2022/11/12 06:03:47;;;;;;;29.88;8.02;;;;;;;;;;5054460;28;20369;-65
2022/11/12 06:06:13;;;;;;;16.48;7.18;;;;;;;;;;5054071;28;20098;-65
2022/11/12 06:08:40;;;;;;;17.55;7.18;;;;;;;;;;5053847;28;20501;-65
2022/11/12 06:11:06;;;;;;;21.17;7.38;;;;;;;;;;5054112;28;20179;-65
2022/11/12 06:13:32;;;;;;;25.48;8.60;;;;;;;;;;5053829;28;20056;-65
2022/11/12 06:15:58;;;;;;;33.80;8.55;;;;;;;;;;5053556;28;20064;-65
2022/11/12 06:18:24;;;;;;;82.68;11.35;;;;;;;;;;5053795;28;20396;-65
2022/11/12 06:23:38;;;;;;;28.00;9.15;;;;;;;;;;5054064;28;20087;-65
2022/11/12 06:26:04;;;;;;;33.65;7.55;;;;;;;;;;5053630;28;20472;-65
2022/11/12 06:28:30;;;;;;;24.02;8.30;;;;;;;;;;5053979;28;20064;-65
2022/11/12 06:30:57;;;;;;;28.05;7.78;;;;;;;;;;5053826;28;20037;-65
2022/11/12 06:33:23;;;;;;;26.13;8.55;;;;;;;;;;5053974;28;20044;-65
2022/11/12 06:35:55;;;;;;;22.30;7.50;;;;;;;;;;5053906;28;20045;-65
2022/11/12 06:38:21;;;;;;;31.92;8.43;;;;;;;;;;5053753;28;20037;-65
2022/11/12 06:40:47;;;;;;;21.55;7.50;;;;;;;;;;5053578;28;20045;-65
2022/11/12 06:43:13;;;;;;;12.18;6.43;;;;;;;;;;5053487;28;20037;-65
2022/11/12 06:45:39;;;;;;;14.65;6.80;;;;;;;;;;5053274;28;20045;-65
2022/11/12 06:48:05;;;;;;;22.23;7.57;;;;;;;;;;5053429;28;20075;-65
2022/11/12 06:50:31;;;;;;;39.67;8.52;;;;;;;;;;5053433;28;20867;-65
2022/11/12 06:52:58;;;;;;;9.27;7.18;;;;;;;;;;5052280;28;20041;-65
2022/11/12 06:55:24;;;;;;;54.38;9.13;;;;;;;;;;5053352;28;20037;-65
2022/11/12 06:57:52;;;;;;;27.73;8.52;;;;;;;;;;5053473;28;20120;-65
2022/11/12 07:00:18;;;;;;;16.92;8.15;;;;;;;;;;5052702;28;20041;-65
2022/11/12 07:02:44;;;;;;;12.00;7.38;;;;;;;;;;5053067;28;20128;-65
2022/11/12 07:05:10;;;;;;;11.63;7.90;;;;;;;;;;5053117;28;20474;-65
2022/11/12 07:07:37;;;;;;;8.90;7.50;;;;;;;;;;5052625;28;20115;-65
2022/11/12 07:10:03;;;;;;;10.52;7.65;;;;;;;;;;5052721;28;20036;-65
2022/11/12 07:12:29;;;;;;;11.35;7.60;;;;;;;;;;5052731;28;20041;-65
2022/11/12 07:14:55;;;;;;;9.95;7.43;;;;;;;;;;5052434;28;20467;-65
2022/11/12 07:17:21;;;;;;;9.30;7.35;;;;;;;;;;5052955;28;20052;-65
2022/11/12 07:19:47;;;;;;;8.68;7.05;;;;;;;;;;5052774;28;20163;-65
2022/11/12 07:22:13;;;;;;;10.02;7.90;;;;;;;;;;5052434;28;20383;-65
2022/11/12 07:24:39;;;;;;;9.98;7.47;;;;;;;;;;5052491;28;20119;-65
2022/11/12 07:27:05;;;;;;;9.98;7.75;;;;;;;;;;5052539;28;20132;-65
2022/11/12 07:29:31;;;;;;;9.48;7.60;;;;;;;;;;5052255;28;20052;-65
2022/11/12 07:31:57;;;;;;;11.63;8.10;;;;;;;;;;5052365;28;20045;-65
2022/11/12 07:34:23;;;;;;;8.65;7.18;;;;;;;;;;5052409;28;20045;-65
2022/11/12 07:36:50;;;;;;;12.50;8.43;;;;;;;;;;5052155;28;20106;-65
2022/11/12 07:39:17;;;;;;;12.25;8.65;;;;;;;;;;5052532;28;20076;-65
2022/11/12 07:41:43;;;;;;;10.10;7.43;;;;;;;;;;5052268;28;20052;-65
2022/11/12 07:44:09;;;;;;;11.88;8.30;;;;;;;;;;5051826;28;20126;-65
2022/11/12 07:46:35;;;;;;;10.73;8.13;;;;;;;;;;5052337;28;20430;-65
2022/11/12 07:49:01;;;;;;;13.02;8.63;;;;;;;;;;5052392;28;20048;-65
2022/11/12 07:51:28;;;;;;;11.52;8.20;;;;;;;;;;5051909;28;20048;-65
2022/11/12 07:53:56;;;;;;;10.32;8.25;;;;;;;;;;5052463;28;20037;-65
2022/11/12 07:56:23;;;;;;;11.82;8.57;;;;;;;;;;5052226;28;20048;-65
2022/11/12 07:58:49;;;;;;;11.57;8.23;;;;;;;;;;5051788;28;20107;-65
2022/11/12 08:01:34;;;;;;;12.20;8.75;;;;;;;;;;5051834;28;20045;-65
2022/11/12 08:04:00;;;;;;;13.38;10.15;;;;;;;;;;5051968;28;20044;-65
2022/11/12 08:06:27;;;;;;;13.05;10.27;;;;;;;;;;5051651;28;20095;-65
2022/11/12 08:08:54;;;;;;;12.93;8.73;;;;;;;;;;5051723;28;20060;-65
2022/11/12 08:11:21;;;;;;;14.18;10.25;;;;;;;;;;5051938;28;20037;-65
2022/11/12 08:13:47;;;;;;;15.85;11.15;;;;;;;;;;5051104;28;20057;-65
2022/11/12 08:16:13;;;;;;;13.68;9.60;;;;;;;;;;5051670;28;20131;-65
2022/11/12 08:18:39;;;;;;;12.98;9.05;;;;;;;;;;5051979;28;20094;-65
2022/11/12 08:21:06;;;;;;;12.82;9.50;;;;;;;;;;5051375;28;20036;-65
2022/11/12 08:23:33;;;;;;;13.18;9.05;;;;;;;;;;5051626;28;20088;-65
2022/11/12 08:26:03;;;;;;;11.82;8.98;;;;;;;;;;5051748;28;20044;-65
2022/11/12 08:28:30;;;;;;;11.63;8.27;;;;;;;;;;5051428;28;20036;-65
2022/11/12 08:30:58;;;;;;;9.50;8.40;;;;;;;;;;5051259;28;20041;-65
2022/11/12 08:33:24;;;;;;;11.48;7.93;;;;;;;;;;5051694;28;20422;-65
2022/11/12 08:35:50;;;;;;;12.90;9.23;;;;;;;;;;5051291;28;20049;-65
2022/11/12 08:38:16;;;;;;;11.57;8.77;;;;;;;;;;5051649;28;20467;-65
2022/11/12 08:40:42;;;;;;;12.35;9.27;;;;;;;;;;5051272;28;20430;-65
2022/11/12 08:43:09;;;;;;;11.77;8.90;;;;;;;;;;5051094;28;20151;-65
2022/11/12 08:45:39;;;;;;;12.00;9.30;;;;;;;;;;5051037;28;20055;-65
2022/11/12 08:48:06;;;;;;;10.02;8.75;;;;;;;;;;5051353;28;20487;-65
2022/11/12 08:50:33;;;;;;;13.10;8.98;;;;;;;;;;5051025;28;20091;-65
2022/11/12 08:53:05;;;;;;;12.68;9.85;;;;;;;;;;5051410;28;20033;-65
2022/11/12 08:55:34;;;;;;;13.75;9.10;;;;;;;;;;5051327;28;20041;-65
2022/11/12 08:58:03;;;;;;;12.70;8.68;;;;;;;;;;5051009;28;20037;-65
2022/11/12 09:00:30;;;;;;;11.63;8.40;;;;;;;;;;5051055;28;20037;-65
2022/11/12 09:02:59;;;;;;;13.50;9.75;;;;;;;;;;5051098;28;20040;-65
2022/11/12 09:05:25;;;;;;;11.93;9.18;;;;;;;;;;5050943;28;20041;-65
2022/11/12 09:07:59;;;;;;;13.25;10.20;;;;;;;;;;5051223;28;20047;-65
2022/11/12 09:10:25;;;;;;;15.18;10.43;;;;;;;;;;5051182;28;20041;-65
2022/11/12 09:12:51;;;;;;;16.38;11.10;;;;;;;;;;5050576;28;20103;-65
2022/11/12 09:15:18;;;;;;;20.88;11.95;;;;;;;;;;5050941;28;20131;-65
2022/11/12 09:17:44;;;;;;;19.05;11.90;;;;;;;;;;5055292;28;20460;-65
2022/11/12 09:20:10;;;;;;;16.25;11.27;;;;;;;;;;5054778;28;20452;-65
2022/11/12 09:22:36;;;;;;;15.13;11.10;;;;;;;;;;5054791;28;20076;-65
2022/11/12 09:25:02;;;;;;;16.95;11.10;;;;;;;;;;5055137;28;20455;-65
2022/11/12 09:27:28;;;;;;;18.05;12.32;;;;;;;;;;5054698;28;20060;-65
2022/11/12 09:29:55;;;;;;;16.95;11.20;;;;;;;;;;5055092;28;20033;-65
2022/11/12 09:32:21;;;;;;;17.05;11.73;;;;;;;;;;5054759;28;20381;-65
2022/11/12 09:34:47;;;;;;;17.02;11.70;;;;;;;;;;5054533;28;20033;-65
2022/11/12 09:37:14;;;;;;;18.60;11.13;;;;;;;;;;5054753;28;20136;-65
2022/11/12 09:39:40;;;;;;;13.93;11.23;;;;;;;;;;5054968;28;20523;-65
2022/11/12 09:42:14;;;;;;;14.25;10.43;;;;;;;;;;5054353;28;20033;-65
2022/11/12 09:44:42;;;;;;;14.93;11.35;;;;;;;;;;5054638;28;20045;-65
2022/11/12 09:47:29;;;;;;;16.20;11.55;;;;;;;;;;5054730;28;20037;-65
2022/11/12 09:50:08;;;;;;;21.10;11.85;;;;;;;;;;5054257;28;20123;-65
2022/11/12 09:52:35;;;;;;;18.02;11.77;;;;;;;;;;5054673;28;20049;-65
2022/11/12 09:55:12;;;;;;;15.00;10.75;;;;;;;;;;5054650;28;20112;-65
2022/11/12 09:57:38;;;;;;;19.05;11.88;;;;;;;;;;5054218;28;20439;-65
2022/11/12 10:00:18;;;;;;;19.17;13.02;;;;;;;;;;5053980;28;20129;-65
2022/11/12 10:02:59;;;;;;;20.33;13.55;;;;;;;;;;5054116;28;20067;-65
2022/11/12 10:05:54;;;;;;;19.42;12.13;;;;;;;;;;5053870;28;20045;-65
2022/11/12 10:08:26;;;;;;;21.95;12.75;;;;;;;;;;5036999;28;20052;-65
2022/11/12 10:11:07;;;;;;;17.50;11.65;;;;;;;;;;5053910;28;20063;-65
2022/11/12 10:13:51;;;;;;;16.65;12.60;;;;;;;;;;5053699;28;20053;-65
2022/11/12 10:16:42;;;;;;;20.73;13.10;;;;;;;;;;5053894;28;20179;-65
2022/11/12 10:19:26;;;;;;;18.23;12.85;;;;;;;;;;5053845;28;20485;-65
2022/11/12 10:21:52;;;;;;;22.83;13.57;;;;;;;;;;5054042;28;20557;-65
2022/11/12 10:24:20;;;;;;;20.95;13.65;;;;;;;;;;5054043;28;20041;-65
2022/11/12 10:26:47;;;;;;;19.20;13.02;;;;;;;;;;5052900;28;20045;-65
2022/11/12 10:29:32;;;;;;;21.27;13.43;;;;;;;;;;5052985;28;20131;-65
2022/11/12 10:32:01;;;;;;;24.50;13.30;;;;;;;;;;5053884;28;20124;-65
2022/11/12 10:34:30;;;;;;;20.10;13.55;;;;;;;;;;5053175;28;20049;-65
2022/11/12 10:37:14;;;;;;;22.80;13.07;;;;;;;;;;5053725;28;20411;-65
2022/11/12 10:39:41;;;;;;;20.30;13.18;;;;;;;;;;5053684;28;20075;-65
2022/11/12 10:42:07;;;;;;;17.77;13.05;;;;;;;;;;5053218;28;20045;-65
2022/11/12 10:44:34;;;;;;;22.10;14.07;;;;;;;;;;5053620;28;20045;-65
2022/11/12 10:47:18;;;;;;;19.23;13.40;;;;;;;;;;5053575;28;20066;-65
2022/11/12 10:49:58;;;;;;;21.38;13.48;;;;;;;;;;5053117;28;20143;-65
2022/11/12 10:52:24;;;;;;;16.77;12.63;;;;;;;;;;5053624;28;20041;-65
2022/11/12 10:55:02;;;;;;;18.40;13.20;;;;;;;;;;5053217;28;20047;-65
2022/11/12 10:57:28;;;;;;;22.10;13.93;;;;;;;;;;5053380;28;20356;-65
2022/11/12 11:00:12;;;;;;;23.15;14.88;;;;;;;;;;5053182;28;20041;-65
2022/11/12 11:02:54;;;;;;;17.73;13.23;;;;;;;;;;5052981;28;20086;-65
2022/11/12 11:05:37;;;;;;;21.40;12.70;;;;;;;;;;5053097;28;20051;-65
2022/11/12 11:08:03;;;;;;;;;;;;;;;;;;5053475;28;20037;-65
2022/11/12 11:10:38;;;;;;;19.20;13.07;;;;;;;;;;5052714;28;19924;-65
2022/11/12 11:13:19;;;;;;;18.60;12.98;;;;;;;;;;5052654;28;20056;-65
2022/11/12 11:16:05;;;;;;;20.58;13.02;;;;;;;;;;5052782;28;20084;-65
2022/11/12 11:18:36;;;;;;;19.73;13.20;;;;;;;;;;5052240;28;20032;-65
2022/11/12 11:21:19;;;;;;;17.35;12.77;;;;;;;;;;5052804;28;20040;-65
2022/11/12 11:23:55;;;;;;;16.95;12.77;;;;;;;;;;5052819;28;20532;-65
2022/11/12 11:26:30;;;;;;;17.05;12.50;;;;;;;;;;5052545;28;20059;-65
2022/11/12 11:28:59;;;;;;;18.00;12.50;;;;;;;;;;5052902;28;20129;-65
2022/11/12 11:31:31;;;;;;;17.20;12.32;;;;;;;;;;5052631;28;20041;-65
2022/11/12 11:34:34;;;;;;;17.90;11.48;;;;;;;;;;5051977;28;20128;-65
2022/11/12 11:37:12;;;;;;;19.63;12.52;;;;;;;;;;4971004;28;20050;-65
2022/11/12 11:39:56;;;;;;;18.60;12.35;;;;;;;;;;5041995;28;20179;-65
2022/11/12 11:43:01;;;;;;;18.60;11.48;;;;;;;;;;5052393;28;20056;-64
2022/11/12 11:45:40;;;;;;;15.25;11.50;;;;;;;;;;4970844;28;20054;-64
2022/11/12 11:48:15;;;;;;;17.02;11.60;;;;;;;;;;4970553;28;20651;-64
2022/11/12 11:51:02;;;;;;;15.52;10.95;;;;;;;;;;5021447;28;20049;-64
2022/11/12 11:53:57;;;;;;;13.35;10.30;;;;;;;;;;5052439;28;20442;-64
2022/11/12 11:56:29;;;;;;;15.05;10.98;;;;;;;;;;5034502;28;20059;-64
2022/11/12 11:59:02;;;;;;;15.13;10.98;;;;;;;;;;5052229;28;20387;-64
2022/11/12 12:01:37;;;;;;;17.15;11.18;;;;;;;;;;5052164;28;20033;-64
2022/11/12 12:04:20;;;;;;;17.83;11.07;;;;;;;;;;5051782;28;20043;-64
2022/11/12 12:06:46;;;;;;;;;;;;;;;;;;5052509;28;20086;-64
2022/11/12 12:09:21;;;;;;;16.15;11.82;;;;;;;;;;5051626;28;20322;-64
2022/11/12 12:11:54;;;;;;;17.02;11.88;;;;;;;;;;5051690;28;20068;-64
2022/11/12 12:14:19;;;;;;;;;;;;;;;;;;5052493;28;20048;-64
2022/11/12 12:16:58;;;;;;;15.50;11.13;;;;;;;;;;5051398;28;20433;-64
2022/11/12 12:19:24;;;;;;;16.38;11.57;;;;;;;;;;5051881;28;20045;-64
2022/11/12 12:21:51;;;;;;;17.10;11.23;;;;;;;;;;5051976;28;20055;-64
2022/11/12 12:24:26;;;;;;;16.30;11.63;;;;;;;;;;5051266;28;20444;-64
2022/11/12 12:26:58;;;;;;;14.32;10.50;;;;;;;;;;5050240;28;20048;-65
2022/11/12 12:29:29;;;;;;;13.65;10.35;;;;;;;;;;5051554;28;20135;-65
2022/11/12 12:31:59;;;;;;;12.77;9.15;;;;;;;;;;5051089;28;20116;-65
2022/11/12 12:34:37;;;;;;;14.70;10.32;;;;;;;;;;5051644;28;20051;-65
2022/11/12 12:37:06;;;;;;;15.13;10.40;;;;;;;;;;5051433;28;20391;-65
2022/11/12 12:39:56;;;;;;;11.52;9.27;;;;;;;;;;5050983;28;20542;-65
2022/11/12 12:42:25;;;;;;;15.57;9.98;;;;;;;;;;5043642;28;20060;-65
2022/11/12 12:45:00;;;;;;;14.35;10.23;;;;;;;;;;5051488;28;20501;-65
2022/11/12 12:47:33;;;;;;;11.90;9.50;;;;;;;;;;5051195;28;20094;-65
2022/11/12 12:49:59;;;;;;;13.13;8.90;;;;;;;;;;5050673;28;20041;-65
2022/11/12 12:52:25;;;;;;;11.35;8.23;;;;;;;;;;5051332;28;20047;-65
2022/11/12 12:54:51;;;;;;;12.05;8.25;;;;;;;;;;5051095;28;20095;-65
2022/11/12 12:57:35;;;;;;;12.50;9.52;;;;;;;;;;5051162;28;20080;-65
2022/11/12 13:00:20;;;;;;;10.20;8.93;;;;;;;;;;5051299;28;20147;-65
2022/11/12 13:02:47;;;;;;;9.93;8.13;;;;;;;;;;5051009;28;20037;-65
2022/11/12 13:05:24;;;;;;;9.88;7.68;;;;;;;;;;5051299;28;20476;-65
2022/11/12 13:07:50;;;;;;;11.60;7.20;;;;;;;;;;5051270;28;20037;-65
2022/11/12 13:10:35;;;;;;;12.77;8.57;;;;;;;;;;5050657;28;20124;-65
2022/11/12 13:13:02;;;;;;;10.52;8.57;;;;;;;;;;5051019;28;20480;-65
2022/11/12 13:15:41;;;;;;;12.70;9.20;;;;;;;;;;5051061;28;20400;-65
2022/11/12 13:18:09;;;;;;;12.52;8.55;;;;;;;;;;5051197;28;20037;-65
2022/11/12 13:20:37;;;;;;;11.52;9.18;;;;;;;;;;5051014;28;20071;-65
2022/11/12 13:23:05;;;;;;;12.05;8.63;;;;;;;;;;5050615;28;20682;-65
2022/11/12 13:25:31;;;;;;;12.13;9.07;;;;;;;;;;5050950;28;20146;-65
2022/11/12 13:28:05;;;;;;;13.43;8.60;;;;;;;;;;5051287;28;20063;-65
2022/11/12 13:30:31;;;;;;;12.30;8.35;;;;;;;;;;5050725;28;20037;-65
2022/11/12 13:32:58;;;;;;;12.45;8.35;;;;;;;;;;5051065;28;20048;-65
2022/11/12 13:35:24;;;;;;;10.23;8.05;;;;;;;;;;5050972;28;20049;-65
2022/11/12 13:37:56;;;;;;;11.02;8.70;;;;;;;;;;5050355;28;20041;-65
2022/11/12 13:40:28;;;;;;;12.52;8.35;;;;;;;;;;5050663;28;20045;-65
2022/11/12 13:42:55;;;;;;;10.57;8.48;;;;;;;;;;5050950;28;20120;-65
2022/11/12 13:45:23;;;;;;;13.40;8.90;;;;;;;;;;5050668;28;20033;-65
2022/11/12 13:47:49;;;;;;;12.20;8.57;;;;;;;;;;5050811;28;20048;-65
2022/11/12 13:50:25;;;;;;;11.20;8.52;;;;;;;;;;5050868;28;20044;-65
2022/11/12 13:52:51;;;;;;;10.77;8.60;;;;;;;;;;5050583;28;20527;-65
2022/11/12 13:55:19;;;;;;;12.32;8.55;;;;;;;;;;5050452;28;20128;-65
2022/11/12 13:57:54;;;;;;;13.48;8.48;;;;;;;;;;5050911;28;20051;-65
2022/11/12 14:00:25;;;;;;;13.60;9.60;;;;;;;;;;5050256;28;20717;-65
2022/11/12 14:02:58;;;;;;;13.25;8.82;;;;;;;;;;5053304;28;20067;-65
2022/11/12 14:05:28;;;;;;;11.30;8.85;;;;;;;;;;5054247;28;20118;-65
2022/11/12 14:07:54;;;;;;;14.68;8.88;;;;;;;;;;5053844;28;20041;-65
2022/11/12 14:10:52;;;;;;;10.73;8.68;;;;;;;;;;5054333;28;20060;-65
2022/11/12 14:13:27;;;;;;;11.70;8.48;;;;;;;;;;5020381;28;20041;-65
2022/11/12 14:16:11;;;;;;;11.80;9.20;;;;;;;;;;5053723;28;20072;-65
2022/11/12 14:18:49;;;;;;;12.43;8.90;;;;;;;;;;5054147;28;20033;-65
2022/11/12 14:21:17;;;;;;;13.32;8.95;;;;;;;;;;5054013;28;20091;-65
2022/11/12 14:23:48;;;;;;;11.05;8.85;;;;;;;;;;5053706;28;20521;-65
2022/11/12 14:26:32;;;;;;;15.82;9.43;;;;;;;;;;5054024;28;20606;-65
2022/11/12 14:28:58;;;;;;;15.15;9.10;;;;;;;;;;5054033;28;20049;-65
2022/11/12 14:31:24;;;;;;;11.30;8.88;;;;;;;;;;5053386;28;20045;-65
2022/11/12 14:33:51;;;;;;;11.32;8.55;;;;;;;;;;5053913;28;20372;-65
2022/11/12 14:36:18;;;;;;;13.15;8.98;;;;;;;;;;5053616;28;20145;-65
2022/11/12 14:38:47;;;;;;;15.32;9.30;;;;;;;;;;5053324;28;20041;-65
2022/11/12 14:41:21;;;;;;;14.30;8.77;;;;;;;;;;5053666;28;20044;-65
2022/11/12 14:43:49;;;;;;;14.18;9.38;;;;;;;;;;5053627;28;20037;-65
2022/11/12 14:46:22;;;;;;;17.30;9.27;;;;;;;;;;5052958;28;20049;-65
2022/11/12 14:48:51;;;;;;;12.75;8.98;;;;;;;;;;5053615;28;20542;-65
2022/11/12 14:51:18;;;;;;;13.60;9.57;;;;;;;;;;5053490;28;20072;-65
2022/11/12 14:53:47;;;;;;;15.05;10.00;;;;;;;;;;5052857;28;20155;-65
2022/11/12 14:56:22;;;;;;;13.40;9.95;;;;;;;;;;5053449;28;20063;-65
2022/11/12 14:58:48;;;;;;;18.13;12.85;;;;;;;;;;5053500;28;20545;-65
2022/11/12 15:01:23;;;;;;;15.80;10.95;;;;;;;;;;5052950;28;20527;-65
2022/11/12 15:03:49;;;;;;;18.33;12.63;;;;;;;;;;5053442;28;20057;-65